Etusivu
METAR-TAF:

METAR-TAF

Lentoasemat :

Aurillac, Ranska

Leveyspiiri: 44-53N, Pituuspiiri: 002-25E, korkeus merenpinnasta: 639 m

Tämänhetkinen sää

Tämä raportti tehtiin 36 minuuttia sitten, kello 11.00 UTC
Tuuli 11 kn luoteesta
Lämpötila 6°C
Kosteus 81%
Ilmanpaine 1030 hPa
Näkyvyys 10 km tai enemmän
Hajonneita pilviä 1700 ft:n korkeudessa
Pilvistä 2200 ft:n korkeudessa

METAR: LFLW 101100Z AUTO 31011KT 9999 BKN017 OVC022 06/03 Q1030 TEMPO SHRA

Aika: 12:36 (11:36 UTC)

Sääennuste

Tämä raportti tehtiin 36 minuuttia sitten, kello 11.00 UTC
Ennuste voimassa 10. päivästä klo 12 UTC - 10. päivään klo 21 UTC
Tuuli 11 kn pohjoisen/luoteesta
Näkyvyys 10 km tai enemmän
Hajonneita pilviä 2000 ft:n korkeudessa
Pilvistä 3000 ft:n korkeudessa
Todennäköisyys 40% :
Ajoittain
10. päivästä klo 12 UTC - 10. päivään klo 18 UTC
vesikuuroja

TAF: LFLW 101100Z 1012/1021 33011KT 9999 BKN020 OVC030 PROB40 TEMPO 1012/1018 SHRA

Säähavainnot ja -ennusteet yli 4000 lentoasemalta (METAR- ja TAF-raportit).

Käytössä olevat sääasemat on merkitty karttaan keltaisilla ja punaisilla pisteillä.

Aseta hiiri pisteen päälle nähdäksesi sääaseman nimen.

Klikkaa sitten nähdäksesi säähavainnot ja -ennusteet.

Kartan vaihtaminen: klikkaa mustalla rastilla varustettuja vihreitä pisteitä, niin voit zoomata sisään; viivalla varustettua vihreää pistettä, niin voit zoomata ulos tai vihreitä nuolia, niin pääset viereisille kartoille.


METAR-TAF: